KANE

Anoka County-Blaine (Janes Field) Airport

Minneapolis, Minnesota, USA
METAR KANE 211250Z 35005KT 10SM SKC 20/18 A3002
Observed Flight Rules
Jul-21 @ 12:50 UTC (an hour ago) Visual Flight Rules
Wind Visibility Clouds
350° at 5 knots 10 miles
  • Clear skies
Temperatures Readings
Current 20°C / 68°F
Dewpoint 18°C / 64°F
Humidity 88%
Altimeter 30.02" Hg
Pressure 1017 hPa
Elevation 278
METAR KANE 211250Z 35005KT 10SM SKC 20/18 A3002
Observed Flight Rules
Jul-21 @ 12:50 UTC
(an hour ago)
VFR
Wind Visibility
350° at 5 knots 10 miles
Clouds
  • Clear skies
Temperature Dewpoint
20°C / 68°F 18°C / 64°F
Humidity Altimeter Pressure
88% 30.02" Hg 1017 hPa